MTN7303 KBWI-KEWR
Flight info
| Callsign | MTN7303 |
|---|---|
| Flight time | 1h 10m |
| Altitude | 5000 |
| Route | BELAY HAPPS T447 HOSKR ARD METRO |
| Aircraft | C208/L-SDFGR/C |
Departure
| Time | 2026-04-21 22:51 |
|---|---|
| Airport | Baltimore/Washington International Thurgood Marshall Airport (KBWI) |
Arrival
| Time | 2026-04-22 00:01 |
|---|---|
| Airport | Newark Liberty International Airport (KEWR) |
| Time | Latitude | Longitude | Altitude | Speed | Heading |
|---|---|---|---|---|---|
| 2026-04-21 22:31 | 39.18583 | -76.66886 | 164 ft | 0 kts | 54° |
| 2026-04-21 22:47 | 39.18571 | -76.66888 | 164 ft | 6 kts | 232° |
| 2026-04-21 22:47 | 39.18515 | -76.66943 | 165 ft | 14 kts | 176° |
| 2026-04-21 22:47 | 39.18405 | -76.66850 | 155 ft | 22 kts | 129° |
| 2026-04-21 22:48 | 39.18450 | -76.66717 | 155 ft | 19 kts | 57° |
| 2026-04-21 22:48 | 39.18532 | -76.66566 | 156 ft | 21 kts | 54° |
| 2026-04-21 22:48 | 39.18632 | -76.66430 | 153 ft | 18 kts | 15° |
| 2026-04-21 22:48 | 39.18665 | -76.66418 | 152 ft | 0 kts | 15° |
| 2026-04-21 22:49 | 39.18693 | -76.66406 | 151 ft | 11 kts | 29° |
| 2026-04-21 22:49 | 39.18709 | -76.66331 | 149 ft | 6 kts | 143° |
| 2026-04-21 22:49 | 39.18707 | -76.66328 | 148 ft | 0 kts | 143° |
| 2026-04-21 22:50 | 39.18598 | -76.66225 | 147 ft | 43 kts | 144° |
| 2026-04-21 22:50 | 39.18239 | -76.65887 | 160 ft | 78 kts | 139° |
| 2026-04-21 22:50 | 39.17761 | -76.65429 | 270 ft | 93 kts | 139° |
| 2026-04-21 22:50 | 39.17332 | -76.64809 | 507 ft | 95 kts | 109° |
| 2026-04-21 22:51 | 39.17485 | -76.63972 | 728 ft | 109 kts | 47° |
| 2026-04-21 22:51 | 39.18208 | -76.63574 | 959 ft | 122 kts | 360° |
| 2026-04-21 22:51 | 39.19072 | -76.63745 | 1236 ft | 127 kts | 352° |
| 2026-04-21 22:51 | 39.19959 | -76.63879 | 1493 ft | 128 kts | 352° |
| 2026-04-21 22:52 | 39.20851 | -76.64009 | 1758 ft | 131 kts | 352° |
| 2026-04-21 22:52 | 39.21762 | -76.64151 | 2022 ft | 133 kts | 352° |
| 2026-04-21 22:52 | 39.22653 | -76.64016 | 2255 ft | 131 kts | 37° |
| 2026-04-21 22:52 | 39.23262 | -76.63182 | 2517 ft | 127 kts | 52° |
| 2026-04-21 22:53 | 39.23857 | -76.62342 | 2781 ft | 128 kts | 47° |
| 2026-04-21 22:53 | 39.24600 | -76.61692 | 3032 ft | 130 kts | 32° |
| 2026-04-21 22:53 | 39.25362 | -76.61064 | 3293 ft | 131 kts | 33° |
| 2026-04-21 22:53 | 39.26122 | -76.60418 | 3559 ft | 131 kts | 35° |
| 2026-04-21 22:54 | 39.26852 | -76.59749 | 3819 ft | 131 kts | 34° |
| 2026-04-21 22:54 | 39.27603 | -76.59059 | 4069 ft | 131 kts | 32° |
| 2026-04-21 22:54 | 39.28329 | -76.58386 | 4319 ft | 130 kts | 31° |
| 2026-04-21 22:54 | 39.29063 | -76.57707 | 4600 ft | 129 kts | 29° |
| 2026-04-21 22:55 | 39.29787 | -76.57039 | 4863 ft | 127 kts | 27° |
| 2026-04-21 22:55 | 39.30516 | -76.56367 | 5033 ft | 135 kts | 27° |
| 2026-04-21 22:55 | 39.31326 | -76.55622 | 5048 ft | 150 kts | 28° |
| 2026-04-21 22:55 | 39.32201 | -76.54806 | 5049 ft | 160 kts | 29° |
| 2026-04-21 22:56 | 39.33114 | -76.53955 | 5046 ft | 164 kts | 30° |
| 2026-04-21 22:56 | 39.34044 | -76.53090 | 5048 ft | 165 kts | 30° |
| 2026-04-21 22:56 | 39.34974 | -76.52211 | 5046 ft | 166 kts | 30° |
| 2026-04-21 22:56 | 39.35911 | -76.51333 | 5047 ft | 167 kts | 30° |
| 2026-04-21 22:57 | 39.36857 | -76.50459 | 5047 ft | 168 kts | 30° |
| 2026-04-21 22:57 | 39.37804 | -76.49581 | 5042 ft | 167 kts | 28° |
| 2026-04-21 22:57 | 39.38740 | -76.48710 | 5042 ft | 165 kts | 29° |
| 2026-04-21 22:57 | 39.39673 | -76.47846 | 5043 ft | 165 kts | 28° |
| 2026-04-21 22:58 | 39.40610 | -76.46977 | 5042 ft | 166 kts | 28° |
| 2026-04-21 22:58 | 39.41543 | -76.46109 | 5041 ft | 165 kts | 28° |
| 2026-04-21 22:58 | 39.42479 | -76.45241 | 5039 ft | 165 kts | 28° |
| 2026-04-21 22:58 | 39.43411 | -76.44375 | 5040 ft | 165 kts | 28° |
| 2026-04-21 22:59 | 39.44344 | -76.43508 | 5039 ft | 165 kts | 28° |
| 2026-04-21 22:59 | 39.45273 | -76.42642 | 5038 ft | 164 kts | 28° |
| 2026-04-21 22:59 | 39.46203 | -76.41778 | 5041 ft | 165 kts | 29° |
| 2026-04-21 22:59 | 39.47134 | -76.40913 | 5041 ft | 165 kts | 28° |
| 2026-04-21 23:00 | 39.48066 | -76.40051 | 5039 ft | 164 kts | 28° |
| 2026-04-21 23:00 | 39.48994 | -76.39181 | 5041 ft | 165 kts | 29° |
| 2026-04-21 23:00 | 39.49925 | -76.38309 | 5037 ft | 165 kts | 28° |
| 2026-04-21 23:00 | 39.50852 | -76.37447 | 5038 ft | 164 kts | 28° |
| 2026-04-21 23:01 | 39.51784 | -76.36580 | 5042 ft | 165 kts | 29° |
| 2026-04-21 23:01 | 39.52403 | -76.36003 | 5040 ft | 166 kts | 29° |
| 2026-04-21 23:01 | 39.53334 | -76.35134 | 5042 ft | 165 kts | 28° |
| 2026-04-21 23:01 | 39.54268 | -76.34264 | 5043 ft | 165 kts | 28° |
| 2026-04-21 23:02 | 39.55200 | -76.33393 | 5043 ft | 165 kts | 28° |
| 2026-04-21 23:02 | 39.56129 | -76.32527 | 5044 ft | 165 kts | 28° |
| 2026-04-21 23:02 | 39.57058 | -76.31658 | 5045 ft | 165 kts | 29° |
| 2026-04-21 23:02 | 39.57994 | -76.30784 | 5042 ft | 166 kts | 29° |
| 2026-04-21 23:03 | 39.58899 | -76.29835 | 5014 ft | 171 kts | 44° |
| 2026-04-21 23:03 | 39.59564 | -76.28546 | 5015 ft | 171 kts | 52° |
| 2026-04-21 23:03 | 39.60238 | -76.27274 | 5018 ft | 172 kts | 50° |
| 2026-04-21 23:03 | 39.60923 | -76.25993 | 5018 ft | 173 kts | 51° |
| 2026-04-21 23:04 | 39.61606 | -76.24704 | 5016 ft | 173 kts | 51° |
| 2026-04-21 23:04 | 39.62284 | -76.23418 | 5018 ft | 173 kts | 51° |
| 2026-04-21 23:04 | 39.62964 | -76.22134 | 5017 ft | 173 kts | 51° |
| 2026-04-21 23:04 | 39.63644 | -76.20842 | 5017 ft | 174 kts | 51° |
| 2026-04-21 23:05 | 39.64332 | -76.19544 | 5014 ft | 174 kts | 51° |
| 2026-04-21 23:05 | 39.65016 | -76.18248 | 5013 ft | 175 kts | 51° |
| 2026-04-21 23:05 | 39.65700 | -76.16950 | 5012 ft | 173 kts | 51° |
| 2026-04-21 23:05 | 39.66380 | -76.15664 | 5016 ft | 173 kts | 51° |
| 2026-04-21 23:06 | 39.67061 | -76.14372 | 5018 ft | 174 kts | 51° |
| 2026-04-21 23:06 | 39.67739 | -76.13082 | 5007 ft | 172 kts | 53° |
| 2026-04-21 23:06 | 39.68415 | -76.11797 | 5006 ft | 172 kts | 52° |
| 2026-04-21 23:06 | 39.69095 | -76.10515 | 5005 ft | 173 kts | 53° |
| 2026-04-21 23:07 | 39.69771 | -76.09225 | 5010 ft | 173 kts | 52° |
| 2026-04-21 23:07 | 39.70452 | -76.07932 | 5007 ft | 174 kts | 53° |
| 2026-04-21 23:07 | 39.71132 | -76.06638 | 5011 ft | 173 kts | 52° |
| 2026-04-21 23:07 | 39.71811 | -76.05349 | 5007 ft | 172 kts | 52° |
| 2026-04-21 23:08 | 39.72486 | -76.04066 | 5004 ft | 172 kts | 53° |
| 2026-04-21 23:08 | 39.73160 | -76.02783 | 5004 ft | 172 kts | 53° |
| 2026-04-21 23:08 | 39.73833 | -76.01502 | 5004 ft | 172 kts | 52° |
| 2026-04-21 23:08 | 39.74504 | -76.00224 | 4999 ft | 172 kts | 52° |
| 2026-04-21 23:09 | 39.75180 | -75.98937 | 4996 ft | 172 kts | 52° |
| 2026-04-21 23:09 | 39.75852 | -75.97655 | 4999 ft | 172 kts | 53° |
| 2026-04-21 23:09 | 39.76526 | -75.96371 | 5005 ft | 172 kts | 53° |
| 2026-04-21 23:09 | 39.77198 | -75.95085 | 5000 ft | 172 kts | 52° |
| 2026-04-21 23:10 | 39.77872 | -75.93800 | 4997 ft | 172 kts | 52° |
| 2026-04-21 23:10 | 39.78544 | -75.92518 | 4992 ft | 172 kts | 52° |
| 2026-04-21 23:10 | 39.79216 | -75.91235 | 4989 ft | 172 kts | 53° |
| 2026-04-21 23:10 | 39.79889 | -75.89949 | 4985 ft | 172 kts | 53° |
| 2026-04-21 23:11 | 39.80562 | -75.88663 | 4986 ft | 172 kts | 53° |
| 2026-04-21 23:11 | 39.81234 | -75.87376 | 4986 ft | 172 kts | 53° |
| 2026-04-21 23:11 | 39.81906 | -75.86093 | 4989 ft | 171 kts | 52° |
| 2026-04-21 23:11 | 39.82748 | -75.85056 | 4991 ft | 165 kts | 23° |
| 2026-04-21 23:12 | 39.83790 | -75.84599 | 4982 ft | 158 kts | 4° |
| 2026-04-21 23:12 | 39.84890 | -75.84306 | 4984 ft | 160 kts | 6° |
| 2026-04-21 23:12 | 39.85979 | -75.83991 | 4982 ft | 160 kts | 6° |
| 2026-04-21 23:12 | 39.87064 | -75.83685 | 4983 ft | 159 kts | 6° |
| 2026-04-21 23:13 | 39.88135 | -75.83381 | 4980 ft | 160 kts | 6° |
| 2026-04-21 23:13 | 39.89234 | -75.83072 | 4981 ft | 159 kts | 6° |
| 2026-04-21 23:13 | 39.90315 | -75.82765 | 4979 ft | 159 kts | 6° |
| 2026-04-21 23:13 | 39.91395 | -75.82461 | 4979 ft | 159 kts | 6° |
| 2026-04-21 23:14 | 39.92436 | -75.82040 | 4972 ft | 164 kts | 25° |
| 2026-04-21 23:14 | 39.93262 | -75.80986 | 4976 ft | 169 kts | 50° |
| 2026-04-21 23:14 | 39.93973 | -75.79737 | 4985 ft | 170 kts | 49° |
| 2026-04-21 23:14 | 39.94692 | -75.78513 | 4986 ft | 170 kts | 49° |
| 2026-04-21 23:15 | 39.95404 | -75.77295 | 4984 ft | 169 kts | 50° |
| 2026-04-21 23:15 | 39.96113 | -75.76078 | 4986 ft | 168 kts | 49° |
| 2026-04-21 23:15 | 39.96820 | -75.74868 | 4985 ft | 168 kts | 49° |
| 2026-04-21 23:15 | 39.97526 | -75.73660 | 4986 ft | 168 kts | 50° |
| 2026-04-21 23:16 | 39.98232 | -75.72449 | 4989 ft | 168 kts | 50° |
| 2026-04-21 23:16 | 39.98942 | -75.71232 | 5005 ft | 169 kts | 49° |
| 2026-04-21 23:16 | 39.99651 | -75.70016 | 5006 ft | 168 kts | 50° |
| 2026-04-21 23:16 | 40.00362 | -75.68797 | 5008 ft | 169 kts | 50° |
| 2026-04-21 23:17 | 40.01075 | -75.67572 | 5008 ft | 170 kts | 50° |
| 2026-04-21 23:17 | 40.01791 | -75.66340 | 5012 ft | 170 kts | 50° |
| 2026-04-21 23:17 | 40.02505 | -75.65115 | 5011 ft | 170 kts | 50° |
| 2026-04-21 23:17 | 40.03217 | -75.63892 | 5011 ft | 169 kts | 50° |
| 2026-04-21 23:18 | 40.03929 | -75.62668 | 5009 ft | 169 kts | 50° |
| 2026-04-21 23:18 | 40.04638 | -75.61449 | 5006 ft | 169 kts | 50° |
| 2026-04-21 23:18 | 40.05347 | -75.60229 | 5008 ft | 168 kts | 49° |
| 2026-04-21 23:18 | 40.06054 | -75.59013 | 5010 ft | 168 kts | 50° |
| 2026-04-21 23:19 | 40.06761 | -75.57795 | 5005 ft | 168 kts | 50° |
| 2026-04-21 23:19 | 40.07466 | -75.56578 | 5005 ft | 168 kts | 50° |
| 2026-04-21 23:19 | 40.08169 | -75.55370 | 5008 ft | 167 kts | 50° |
| 2026-04-21 23:19 | 40.08694 | -75.54019 | 4998 ft | 169 kts | 72° |
| 2026-04-21 23:20 | 40.09058 | -75.52557 | 5003 ft | 169 kts | 69° |
| 2026-04-21 23:20 | 40.09450 | -75.51115 | 5003 ft | 168 kts | 69° |
| 2026-04-21 23:20 | 40.09836 | -75.49675 | 5009 ft | 169 kts | 69° |
| 2026-04-21 23:20 | 40.10221 | -75.48227 | 4999 ft | 169 kts | 69° |
| 2026-04-21 23:21 | 40.10605 | -75.46783 | 5000 ft | 168 kts | 69° |
| 2026-04-21 23:21 | 40.10991 | -75.45334 | 5001 ft | 169 kts | 70° |
| 2026-04-21 23:21 | 40.11374 | -75.43888 | 4997 ft | 169 kts | 69° |
| 2026-04-21 23:21 | 40.11759 | -75.42441 | 5002 ft | 169 kts | 69° |
| 2026-04-21 23:22 | 40.12142 | -75.40997 | 5009 ft | 168 kts | 69° |
| 2026-04-21 23:22 | 40.12523 | -75.39559 | 5003 ft | 168 kts | 69° |
| 2026-04-21 23:22 | 40.12905 | -75.38117 | 5006 ft | 168 kts | 69° |
| 2026-04-21 23:22 | 40.13286 | -75.36681 | 5007 ft | 167 kts | 69° |
| 2026-04-21 23:23 | 40.13667 | -75.35243 | 5004 ft | 167 kts | 69° |
| 2026-04-21 23:23 | 40.14046 | -75.33808 | 4999 ft | 168 kts | 69° |
| 2026-04-21 23:23 | 40.14427 | -75.32369 | 5001 ft | 168 kts | 69° |
| 2026-04-21 23:23 | 40.14808 | -75.30927 | 5000 ft | 168 kts | 69° |
| 2026-04-21 23:24 | 40.15189 | -75.29486 | 5001 ft | 168 kts | 69° |
| 2026-04-21 23:24 | 40.15570 | -75.28043 | 5003 ft | 168 kts | 69° |
| 2026-04-21 23:24 | 40.15950 | -75.26602 | 5000 ft | 168 kts | 69° |
| 2026-04-21 23:24 | 40.16330 | -75.25161 | 5003 ft | 168 kts | 69° |
| 2026-04-21 23:25 | 40.16708 | -75.23726 | 5005 ft | 167 kts | 70° |
| 2026-04-21 23:25 | 40.17093 | -75.22266 | 5006 ft | 168 kts | 69° |
| 2026-04-21 23:25 | 40.17468 | -75.20841 | 5005 ft | 168 kts | 69° |
| 2026-04-21 23:25 | 40.17846 | -75.19402 | 5013 ft | 168 kts | 69° |
| 2026-04-21 23:26 | 40.18226 | -75.17959 | 5007 ft | 168 kts | 70° |
| 2026-04-21 23:26 | 40.18608 | -75.16502 | 5013 ft | 167 kts | 70° |
| 2026-04-21 23:26 | 40.18988 | -75.15060 | 5007 ft | 167 kts | 70° |
| 2026-04-21 23:26 | 40.19365 | -75.13623 | 5016 ft | 167 kts | 70° |
| 2026-04-21 23:27 | 40.19740 | -75.12193 | 5012 ft | 166 kts | 69° |
| 2026-04-21 23:27 | 40.20115 | -75.10763 | 4997 ft | 166 kts | 70° |
| 2026-04-21 23:27 | 40.20491 | -75.09329 | 4995 ft | 166 kts | 69° |
| 2026-04-21 23:27 | 40.20865 | -75.07899 | 4993 ft | 166 kts | 69° |
| 2026-04-21 23:28 | 40.21240 | -75.06467 | 4999 ft | 166 kts | 70° |
| 2026-04-21 23:28 | 40.21612 | -75.05043 | 4990 ft | 165 kts | 70° |
| 2026-04-21 23:28 | 40.21983 | -75.03623 | 4991 ft | 165 kts | 70° |
| 2026-04-21 23:28 | 40.22353 | -75.02205 | 4994 ft | 165 kts | 71° |
| 2026-04-21 23:29 | 40.22724 | -75.00786 | 4991 ft | 164 kts | 70° |
| 2026-04-21 23:29 | 40.23094 | -74.99368 | 5001 ft | 165 kts | 70° |
| 2026-04-21 23:29 | 40.23463 | -74.97953 | 5002 ft | 164 kts | 70° |
| 2026-04-21 23:29 | 40.23832 | -74.96538 | 4987 ft | 165 kts | 70° |
| 2026-04-21 23:30 | 40.24203 | -74.95112 | 4981 ft | 165 kts | 71° |
| 2026-04-21 23:30 | 40.24574 | -74.93687 | 4980 ft | 165 kts | 70° |
| 2026-04-21 23:30 | 40.24944 | -74.92267 | 4983 ft | 165 kts | 71° |
| 2026-04-21 23:30 | 40.25340 | -74.90864 | 4975 ft | 164 kts | 61° |
| 2026-04-21 23:31 | 40.26066 | -74.89741 | 4976 ft | 162 kts | 43° |
| 2026-04-21 23:31 | 40.26841 | -74.88669 | 4976 ft | 162 kts | 45° |
| 2026-04-21 23:31 | 40.27604 | -74.87587 | 4977 ft | 162 kts | 45° |
| 2026-04-21 23:31 | 40.28372 | -74.86508 | 4977 ft | 162 kts | 45° |
| 2026-04-21 23:32 | 40.29142 | -74.85428 | 4974 ft | 163 kts | 45° |
| 2026-04-21 23:32 | 40.29915 | -74.84344 | 4975 ft | 163 kts | 45° |
| 2026-04-21 23:32 | 40.30686 | -74.83262 | 4976 ft | 162 kts | 45° |
| 2026-04-21 23:32 | 40.31456 | -74.82181 | 4976 ft | 163 kts | 45° |
| 2026-04-21 23:33 | 40.32227 | -74.81098 | 4975 ft | 162 kts | 45° |
| 2026-04-21 23:33 | 40.32998 | -74.80014 | 4974 ft | 162 kts | 45° |
| 2026-04-21 23:33 | 40.33768 | -74.78933 | 4980 ft | 162 kts | 45° |
| 2026-04-21 23:33 | 40.34538 | -74.77852 | 4979 ft | 162 kts | 45° |
| 2026-04-21 23:34 | 40.35309 | -74.76767 | 4983 ft | 163 kts | 45° |
| 2026-04-21 23:34 | 40.36082 | -74.75679 | 4983 ft | 163 kts | 45° |
| 2026-04-21 23:34 | 40.36855 | -74.74591 | 4983 ft | 163 kts | 45° |
| 2026-04-21 23:34 | 40.37631 | -74.73498 | 4983 ft | 163 kts | 45° |
| 2026-04-21 23:35 | 40.38404 | -74.72410 | 4982 ft | 163 kts | 45° |
| 2026-04-21 23:35 | 40.39179 | -74.71318 | 4981 ft | 163 kts | 46° |
| 2026-04-21 23:35 | 40.39963 | -74.70212 | 4981 ft | 164 kts | 46° |
| 2026-04-21 23:35 | 40.40730 | -74.69131 | 4981 ft | 164 kts | 46° |
| 2026-04-21 23:36 | 40.41507 | -74.68035 | 4982 ft | 164 kts | 45° |
| 2026-04-21 23:36 | 40.42345 | -74.67050 | 4975 ft | 162 kts | 26° |
| 2026-04-21 23:36 | 40.43382 | -74.66421 | 4965 ft | 161 kts | 21° |
| 2026-04-21 23:36 | 40.44408 | -74.65880 | 4966 ft | 161 kts | 18° |
| 2026-04-21 23:37 | 40.45456 | -74.65359 | 4966 ft | 161 kts | 18° |
| 2026-04-21 23:37 | 40.46514 | -74.64829 | 4966 ft | 161 kts | 18° |
| 2026-04-21 23:37 | 40.47559 | -74.64303 | 4966 ft | 161 kts | 18° |
| 2026-04-21 23:37 | 40.48590 | -74.63788 | 4967 ft | 161 kts | 18° |
| 2026-04-21 23:38 | 40.49646 | -74.63256 | 4964 ft | 160 kts | 18° |
| 2026-04-21 23:38 | 40.50675 | -74.62740 | 4963 ft | 160 kts | 18° |
| 2026-04-21 23:38 | 40.51376 | -74.62386 | 4963 ft | 160 kts | 18° |
| 2026-04-21 23:38 | 40.52421 | -74.61865 | 4963 ft | 160 kts | 18° |
| 2026-04-21 23:39 | 40.53463 | -74.61347 | 4965 ft | 160 kts | 17° |
| 2026-04-21 23:39 | 40.54510 | -74.60830 | 4964 ft | 161 kts | 18° |
| 2026-04-21 23:39 | 40.55560 | -74.60313 | 4965 ft | 161 kts | 18° |
| 2026-04-21 23:39 | 40.56610 | -74.59794 | 4965 ft | 161 kts | 18° |
| 2026-04-21 23:40 | 40.57660 | -74.59276 | 4966 ft | 161 kts | 18° |
| 2026-04-21 23:40 | 40.58715 | -74.58755 | 4968 ft | 162 kts | 18° |
| 2026-04-21 23:40 | 40.59769 | -74.58235 | 4966 ft | 162 kts | 18° |
| 2026-04-21 23:40 | 40.60835 | -74.57707 | 4968 ft | 162 kts | 18° |
| 2026-04-21 23:41 | 40.61887 | -74.57184 | 4961 ft | 162 kts | 17° |
| 2026-04-21 23:41 | 40.62942 | -74.56659 | 4961 ft | 162 kts | 18° |
| 2026-04-21 23:41 | 40.63991 | -74.56141 | 4961 ft | 161 kts | 18° |
| 2026-04-21 23:41 | 40.65042 | -74.55621 | 4960 ft | 161 kts | 18° |
| 2026-04-21 23:42 | 40.66092 | -74.55102 | 4964 ft | 161 kts | 18° |
| 2026-04-21 23:42 | 40.67143 | -74.54584 | 4965 ft | 162 kts | 18° |
| 2026-04-21 23:42 | 40.68197 | -74.54065 | 4967 ft | 162 kts | 18° |
| 2026-04-21 23:42 | 40.69250 | -74.53545 | 4967 ft | 162 kts | 17° |
| 2026-04-21 23:43 | 40.70303 | -74.53028 | 4965 ft | 161 kts | 17° |
| 2026-04-21 23:43 | 40.71355 | -74.52508 | 4965 ft | 162 kts | 18° |
| 2026-04-21 23:43 | 40.72406 | -74.51984 | 4965 ft | 161 kts | 18° |
| 2026-04-21 23:43 | 40.73458 | -74.51461 | 4972 ft | 163 kts | 18° |
| 2026-04-21 23:44 | 40.74518 | -74.50929 | 4976 ft | 163 kts | 18° |
| 2026-04-21 23:44 | 40.75580 | -74.50402 | 4976 ft | 163 kts | 17° |
| 2026-04-21 23:44 | 40.76638 | -74.49873 | 4979 ft | 163 kts | 17° |
| 2026-04-21 23:44 | 40.77698 | -74.49345 | 4982 ft | 163 kts | 18° |
| 2026-04-21 23:45 | 40.78758 | -74.48820 | 5000 ft | 163 kts | 17° |
| 2026-04-21 23:45 | 40.80879 | -74.47763 | 5001 ft | 163 kts | 17° |
| 2026-04-21 23:45 | 40.81942 | -74.47231 | 5000 ft | 163 kts | 17° |
| 2026-04-21 23:46 | 40.83006 | -74.46696 | 5001 ft | 163 kts | 18° |
| 2026-04-21 23:46 | 40.84064 | -74.46162 | 5000 ft | 163 kts | 18° |
| 2026-04-21 23:46 | 40.85128 | -74.45627 | 5002 ft | 164 kts | 17° |
| 2026-04-21 23:46 | 40.86189 | -74.45090 | 5002 ft | 163 kts | 18° |
| 2026-04-21 23:47 | 40.87193 | -74.44396 | 4992 ft | 166 kts | 43° |
| 2026-04-21 23:47 | 40.87873 | -74.43159 | 4996 ft | 167 kts | 57° |
| 2026-04-21 23:47 | 40.88489 | -74.41863 | 4999 ft | 167 kts | 57° |
| 2026-04-21 23:47 | 40.89100 | -74.40563 | 5000 ft | 167 kts | 57° |
| 2026-04-21 23:48 | 40.89702 | -74.39290 | 5001 ft | 167 kts | 58° |
| 2026-04-21 23:48 | 40.90331 | -74.37962 | 5002 ft | 167 kts | 57° |
| 2026-04-21 23:48 | 40.90946 | -74.36662 | 5002 ft | 167 kts | 57° |
| 2026-04-21 23:48 | 40.91564 | -74.35365 | 5008 ft | 168 kts | 55° |
| 2026-04-21 23:49 | 40.92173 | -74.34042 | 4998 ft | 169 kts | 57° |
| 2026-04-21 23:49 | 40.92774 | -74.32706 | 4999 ft | 169 kts | 57° |
| 2026-04-21 23:49 | 40.93382 | -74.31365 | 4997 ft | 168 kts | 57° |
| 2026-04-21 23:49 | 40.93984 | -74.30036 | 4997 ft | 168 kts | 58° |
| 2026-04-21 23:50 | 40.94580 | -74.28714 | 5002 ft | 168 kts | 57° |
| 2026-04-21 23:50 | 40.94965 | -74.27268 | 4979 ft | 170 kts | 91° |
| 2026-04-21 23:50 | 40.94754 | -74.25701 | 4769 ft | 177 kts | 108° |
| 2026-04-21 23:50 | 40.94442 | -74.24103 | 4559 ft | 180 kts | 107° |
| 2026-04-21 23:51 | 40.94147 | -74.22563 | 4362 ft | 172 kts | 107° |
| 2026-04-21 23:51 | 40.93854 | -74.21022 | 4149 ft | 169 kts | 107° |
| 2026-04-21 23:51 | 40.93579 | -74.19545 | 4001 ft | 164 kts | 107° |
| 2026-04-21 23:51 | 40.93312 | -74.18086 | 3993 ft | 163 kts | 108° |
| 2026-04-21 23:52 | 40.93043 | -74.16631 | 3998 ft | 162 kts | 107° |
| 2026-04-21 23:52 | 40.92769 | -74.15162 | 3999 ft | 163 kts | 108° |
| 2026-04-21 23:52 | 40.92512 | -74.13716 | 3999 ft | 164 kts | 107° |
| 2026-04-21 23:52 | 40.92249 | -74.12253 | 4000 ft | 163 kts | 108° |
| 2026-04-21 23:53 | 40.91983 | -74.10796 | 3996 ft | 163 kts | 107° |
| 2026-04-21 23:53 | 40.91676 | -74.09370 | 3991 ft | 160 kts | 121° |
| 2026-04-21 23:53 | 40.90906 | -74.08296 | 3793 ft | 163 kts | 148° |
| 2026-04-21 23:53 | 40.89997 | -74.07366 | 3604 ft | 167 kts | 147° |
| 2026-04-21 23:54 | 40.89013 | -74.06562 | 3402 ft | 165 kts | 168° |
| 2026-04-21 23:54 | 40.87892 | -74.06341 | 3202 ft | 163 kts | 178° |
| 2026-04-21 23:54 | 40.86787 | -74.06164 | 3014 ft | 154 kts | 178° |
| 2026-04-21 23:54 | 40.85781 | -74.06098 | 2989 ft | 137 kts | 197° |
| 2026-04-21 23:55 | 40.84946 | -74.06540 | 2992 ft | 125 kts | 205° |
| 2026-04-21 23:55 | 40.84148 | -74.06994 | 2988 ft | 125 kts | 207° |
| 2026-04-21 23:55 | 40.83361 | -74.07469 | 2987 ft | 125 kts | 207° |
| 2026-04-21 23:55 | 40.82552 | -74.07978 | 2880 ft | 135 kts | 208° |
| 2026-04-21 23:56 | 40.81683 | -74.08544 | 2692 ft | 142 kts | 207° |
| 2026-04-21 23:56 | 40.80809 | -74.09096 | 2491 ft | 136 kts | 206° |
| 2026-04-21 23:56 | 40.79969 | -74.09634 | 2302 ft | 132 kts | 205° |
| 2026-04-21 23:56 | 40.79159 | -74.10150 | 2125 ft | 127 kts | 205° |
| 2026-04-21 23:57 | 40.78389 | -74.10645 | 1945 ft | 118 kts | 204° |
| 2026-04-21 23:57 | 40.77677 | -74.11103 | 1797 ft | 109 kts | 203° |
| 2026-04-21 23:57 | 40.77034 | -74.11514 | 1661 ft | 96 kts | 202° |
| 2026-04-21 23:57 | 40.76454 | -74.11884 | 1524 ft | 89 kts | 201° |
| 2026-04-21 23:58 | 40.75963 | -74.12196 | 1412 ft | 71 kts | 199° |
| 2026-04-21 23:58 | 40.75549 | -74.12448 | 1334 ft | 65 kts | 195° |
| 2026-04-21 23:58 | 40.75101 | -74.12727 | 1241 ft | 76 kts | 200° |
| 2026-04-21 23:58 | 40.74609 | -74.13042 | 1123 ft | 80 kts | 201° |
| 2026-04-21 23:59 | 40.74117 | -74.13364 | 999 ft | 79 kts | 200° |
| 2026-04-21 23:59 | 40.73621 | -74.13688 | 871 ft | 78 kts | 202° |
| 2026-04-21 23:59 | 40.73148 | -74.14016 | 790 ft | 77 kts | 199° |
| 2026-04-21 23:59 | 40.72661 | -74.14318 | 710 ft | 78 kts | 200° |
| 2026-04-22 00:00 | 40.72184 | -74.14617 | 620 ft | 75 kts | 196° |
| 2026-04-22 00:00 | 40.71716 | -74.14919 | 529 ft | 73 kts | 195° |
| 2026-04-22 00:00 | 40.71269 | -74.15201 | 405 ft | 69 kts | 197° |
| 2026-04-22 00:00 | 40.70823 | -74.15475 | 292 ft | 73 kts | 200° |
| 2026-04-22 00:01 | 40.70366 | -74.15770 | 179 ft | 71 kts | 199° |
| 2026-04-22 00:01 | 40.69952 | -74.16035 | 69 ft | 63 kts | 198° |
| 2026-04-22 00:01 | 40.69582 | -74.16271 | 20 ft | 51 kts | 198° |
| 2026-04-22 00:01 | 40.69319 | -74.16435 | 23 ft | 33 kts | 207° |
| 2026-04-22 00:02 | 40.69193 | -74.16560 | 24 ft | 15 kts | 300° |
| 2026-04-22 00:02 | 40.69302 | -74.16598 | 24 ft | 2 kts | 353° |
| 2026-04-22 00:03 | 40.69343 | -74.16608 | 26 ft | 12 kts | 328° |
| 2026-04-22 00:03 | 40.69311 | -74.16657 | 23 ft | 12 kts | 206° |
| 2026-04-22 00:03 | 40.69216 | -74.16717 | 24 ft | 19 kts | 205° |
| 2026-04-22 00:03 | 40.69072 | -74.16809 | 21 ft | 25 kts | 206° |
| 2026-04-22 00:04 | 40.68948 | -74.16889 | 19 ft | 16 kts | 206° |
| 2026-04-22 00:04 | 40.68821 | -74.16968 | 18 ft | 22 kts | 207° |
| 2026-04-22 00:04 | 40.68698 | -74.17049 | 20 ft | 17 kts | 206° |
| 2026-04-22 00:04 | 40.68620 | -74.17137 | 21 ft | 8 kts | 287° |
| 2026-04-22 00:05 | 40.68652 | -74.17229 | 22 ft | 16 kts | 295° |
| 2026-04-22 00:05 | 40.68672 | -74.17383 | 27 ft | 20 kts | 216° |
| 2026-04-22 00:05 | 40.68528 | -74.17474 | 23 ft | 26 kts | 208° |
| 2026-04-22 00:05 | 40.68409 | -74.17622 | 24 ft | 18 kts | 232° |
| 2026-04-22 00:06 | 40.68294 | -74.17746 | 19 ft | 26 kts | 205° |
| 2026-04-22 00:06 | 40.68132 | -74.17847 | 18 ft | 28 kts | 207° |
| 2026-04-22 00:06 | 40.67971 | -74.17947 | 22 ft | 22 kts | 206° |
| 2026-04-22 00:06 | 40.67823 | -74.18045 | 22 ft | 26 kts | 206° |
| 2026-04-22 00:07 | 40.67714 | -74.18114 | 24 ft | 14 kts | 205° |
| 2026-04-22 00:07 | 40.67705 | -74.18236 | 23 ft | 20 kts | 295° |
| 2026-04-22 00:07 | 40.67653 | -74.18326 | 21 ft | 0 kts | 207° |
| 2026-04-22 00:07 | 40.67654 | -74.18326 | 21 ft | 0 kts | 207° |